createdAt,value
2022-09-28T00:01:11.701Z,98205.97
2022-09-28T00:03:39.060Z,98203.50
2022-09-28T00:06:08.362Z,98201.94
2022-09-28T00:08:36.231Z,98198.59
2022-09-28T00:11:04.383Z,98197.75
2022-09-28T00:13:33.071Z,98191.72
2022-09-28T00:16:14.249Z,98194.38
2022-09-28T00:18:42.047Z,98189.03
2022-09-28T00:21:18.483Z,98192.69
2022-09-28T00:24:04.626Z,98189.25
2022-09-28T00:26:33.164Z,98183.22
2022-09-28T00:29:02.204Z,98183.50
2022-09-28T00:31:32.929Z,98194.09
2022-09-28T00:34:02.982Z,98179.53
2022-09-28T00:36:31.461Z,98177.94
2022-09-28T00:38:59.422Z,98175.47
2022-09-28T00:41:28.192Z,98173.78
2022-09-28T00:44:27.250Z,98178.13
2022-09-28T00:46:57.416Z,98175.59
2022-09-28T00:49:52.794Z,98172.34
2022-09-28T00:52:31.425Z,98161.06
2022-09-28T00:55:01.409Z,98166.22
2022-09-28T00:57:29.331Z,98162.69
2022-09-28T00:59:57.214Z,98163.69
2022-09-28T01:02:24.424Z,98167.91
2022-09-28T01:04:52.450Z,98167.97
2022-09-28T01:07:20.017Z,98161.91
2022-09-28T01:09:47.556Z,98159.44
2022-09-28T01:12:14.664Z,98163.03
2022-09-28T01:14:41.902Z,98161.31
2022-09-28T01:17:34.591Z,98163.88
2022-09-28T01:20:28.441Z,98164.81
2022-09-28T01:23:28.253Z,98158.66
2022-09-28T01:26:32.901Z,98162.03
2022-09-28T01:29:26.271Z,98155.22
2022-09-28T01:32:11.767Z,98157.94
2022-09-28T01:34:44.276Z,98153.63
2022-09-28T01:37:15.061Z,98152.66
2022-09-28T01:39:46.099Z,98157.94
2022-09-28T01:42:21.658Z,98151.78
2022-09-28T01:44:51.102Z,98151.78
2022-09-28T01:47:21.091Z,98152.66
2022-09-28T01:49:53.169Z,98158.84
2022-09-28T01:52:34.175Z,98150.09
2022-09-28T01:55:35.804Z,98143.22
2022-09-28T01:58:19.288Z,98143.13
2022-09-28T02:00:50.545Z,98142.28
2022-09-28T02:03:22.389Z,98142.97
2022-09-28T02:05:59.809Z,98133.56
2022-09-28T02:08:35.684Z,98138.78
2022-09-28T02:11:21.511Z,98141.53
2022-09-28T02:14:03.436Z,98138.13
2022-09-28T02:16:43.302Z,98135.50
2022-09-28T02:19:19.048Z,98143.41
2022-09-28T02:22:14.234Z,98138.19
2022-09-28T02:24:56.824Z,98138.13
2022-09-28T02:27:29.784Z,98130.25
2022-09-28T02:29:57.095Z,98123.47
2022-09-28T02:32:24.681Z,98128.63
2022-09-28T02:34:52.139Z,98134.56
2022-09-28T02:37:19.067Z,98125.09
2022-09-28T02:39:46.322Z,98131.16
2022-09-28T02:42:25.800Z,98132.91
2022-09-28T02:45:14.313Z,98132.72
2022-09-28T02:50:44.435Z,98126.56
2022-09-28T02:53:14.459Z,98121.38
2022-09-28T02:56:07.441Z,98121.28
2022-09-28T02:58:50.899Z,98122.97
2022-09-28T03:01:36.040Z,98125.56
2022-09-28T03:04:06.231Z,98122.03
2022-09-28T03:06:55.028Z,98121.09
2022-09-28T03:09:43.261Z,98121.78
2022-09-28T03:12:12.864Z,98123.50
2022-09-28T03:14:40.395Z,98126.22
2022-09-28T03:17:08.663Z,98116.84
2022-09-28T03:19:36.873Z,98119.44
2022-09-28T03:22:05.664Z,98119.50
2022-09-28T03:24:32.715Z,98125.72
2022-09-28T03:26:59.646Z,98126.47
2022-09-28T03:29:26.804Z,98124.78
2022-09-28T03:31:59.904Z,98123.03
2022-09-28T03:34:27.132Z,98121.38
2022-09-28T03:36:54.484Z,98120.44
2022-09-28T03:39:21.513Z,98123.81
2022-09-28T03:41:48.444Z,98121.19
2022-09-28T03:44:17.184Z,98120.34
2022-09-28T03:46:46.754Z,98112.69
2022-09-28T03:49:13.876Z,98110.09
2022-09-28T03:51:40.991Z,98112.69
2022-09-28T03:54:08.883Z,98111.81
2022-09-28T03:56:36.605Z,98106.69
2022-09-28T03:59:04.685Z,98108.59
2022-09-28T04:01:31.990Z,98103.56
2022-09-28T04:03:59.281Z,98101.97
2022-09-28T04:06:27.263Z,98102.91
2022-09-28T04:08:54.301Z,98097.69
2022-09-28T04:11:21.421Z,98103.81
2022-09-28T04:13:52.462Z,98098.59
2022-09-28T04:16:20.053Z,98096.00
2022-09-28T04:18:57.813Z,98090.84
2022-09-28T04:21:48.322Z,98087.28
2022-09-28T04:24:15.600Z,98086.34
2022-09-28T04:26:42.556Z,98087.19
2022-09-28T04:29:17.946Z,98078.53
2022-09-28T04:31:55.574Z,98076.78
2022-09-28T04:34:34.523Z,98073.25
2022-09-28T04:37:02.874Z,98062.00
2022-09-28T04:39:30.121Z,98062.00
2022-09-28T04:41:57.463Z,98065.34
2022-09-28T04:44:24.458Z,98065.34
2022-09-28T04:46:59.734Z,98057.59
2022-09-28T04:49:30.023Z,98059.28
2022-09-28T04:52:18.804Z,98060.97
2022-09-28T04:54:48.906Z,98058.47
2022-09-28T04:57:16.656Z,98062.81
2022-09-28T04:59:43.637Z,98065.53
2022-09-28T05:02:12.073Z,98067.41
2022-09-28T05:05:02.029Z,98064.88
2022-09-28T05:07:38.045Z,98071.09
2022-09-28T05:10:07.194Z,98071.09
2022-09-28T05:12:34.782Z,98071.19
2022-09-28T05:15:01.748Z,98071.09
2022-09-28T05:17:28.943Z,98067.59
2022-09-28T05:20:19.058Z,98073.59
2022-09-28T05:22:46.298Z,98069.22
2022-09-28T05:25:15.354Z,98076.97
2022-09-28T05:28:03.395Z,98072.69
2022-09-28T05:30:48.941Z,98072.59
2022-09-28T05:33:51.313Z,98068.13
2022-09-28T05:36:18.411Z,98071.56
2022-09-28T05:38:45.977Z,98062.84
2022-09-28T05:41:13.945Z,98062.00
2022-09-28T05:43:41.024Z,98070.66
2022-09-28T05:46:08.403Z,98070.66
2022-09-28T05:48:38.490Z,98068.06
2022-09-28T05:51:05.593Z,98061.16
2022-09-28T05:53:32.572Z,98059.41
2022-09-28T05:56:00.031Z,98060.31
2022-09-28T05:58:28.349Z,98063.84
2022-09-28T06:00:58.316Z,98058.56
2022-09-28T06:03:25.696Z,98068.97
2022-09-28T06:05:54.487Z,98057.59
2022-09-28T06:08:21.644Z,98054.84
2022-09-28T06:11:01.086Z,98059.03
2022-09-28T06:13:29.183Z,98055.38
2022-09-28T06:15:56.348Z,98058.00
2022-09-28T06:18:23.750Z,98050.09
2022-09-28T06:21:10.981Z,98057.84
2022-09-28T06:23:48.220Z,98055.31
2022-09-28T06:26:17.222Z,98051.88
2022-09-28T06:28:45.159Z,98058.63
2022-09-28T06:31:12.511Z,98049.94
2022-09-28T06:33:48.522Z,98054.31
2022-09-28T06:36:15.902Z,98063.78
2022-09-28T06:38:43.020Z,98057.72
2022-09-28T06:41:11.791Z,98054.19
2022-09-28T06:43:40.535Z,98052.31
2022-09-28T06:46:14.370Z,98048.78
2022-09-28T06:48:59.661Z,98059.91
2022-09-28T06:51:46.852Z,98058.88
2022-09-28T06:54:32.777Z,98056.00
2022-09-28T06:57:02.703Z,98054.19
2022-09-28T06:59:30.272Z,98059.41
2022-09-28T07:01:59.904Z,98060.25
2022-09-28T07:04:59.184Z,98054.97
2022-09-28T07:07:44.891Z,98050.59
2022-09-28T07:10:28.703Z,98057.75
2022-09-28T07:13:22.103Z,98058.47
2022-09-28T07:16:05.253Z,98062.56
2022-09-28T07:18:32.283Z,98054.59
2022-09-28T07:20:59.805Z,98061.53
2022-09-28T07:23:29.678Z,98060.75
2022-09-28T07:26:19.206Z,98065.81
2022-09-28T07:29:13.227Z,98068.25
2022-09-28T07:31:58.692Z,98065.41
2022-09-28T07:34:58.753Z,98060.81
2022-09-28T07:37:46.619Z,98056.53
2022-09-28T07:40:32.191Z,98058.38
2022-09-28T07:43:06.363Z,98062.09
2022-09-28T07:45:36.845Z,98063.16
2022-09-28T07:48:04.168Z,98062.38
2022-09-28T07:50:56.767Z,98064.91
2022-09-28T07:53:45.932Z,98069.13
2022-09-28T07:56:31.132Z,98060.63
2022-09-28T07:59:18.886Z,98068.56
2022-09-28T08:02:04.381Z,98065.09
2022-09-28T08:04:31.729Z,98072.16
2022-09-28T08:06:59.812Z,98064.25
2022-09-28T08:09:26.981Z,98066.94
2022-09-28T08:12:19.787Z,98073.00
2022-09-28T08:15:10.461Z,98070.13
2022-09-28T08:17:51.743Z,98069.09
2022-09-28T08:20:39.421Z,98069.72
2022-09-28T08:23:11.707Z,98073.94
2022-09-28T08:25:40.561Z,98067.88
2022-09-28T08:28:07.609Z,98075.91
2022-09-28T08:30:41.512Z,98074.13
2022-09-28T08:33:27.902Z,98073.03
2022-09-28T08:36:13.811Z,98063.50
2022-09-28T08:38:59.021Z,98061.91
2022-09-28T08:41:43.331Z,98064.56
2022-09-28T08:44:24.571Z,98069.00
2022-09-28T08:47:43.711Z,98064.72
2022-09-28T08:50:32.553Z,98087.25
2022-09-28T08:53:36.280Z,98083.44
2022-09-28T08:56:17.372Z,98088.19
2022-09-28T08:58:44.880Z,98083.50
2022-09-28T09:01:16.675Z,98086.94
2022-09-28T09:03:45.911Z,98082.50
2022-09-28T09:06:36.571Z,98086.66
2022-09-28T09:09:51.226Z,98083.94
2022-09-28T09:12:41.179Z,98082.50
2022-09-28T09:15:47.788Z,98087.34
2022-09-28T09:18:37.304Z,98091.06
2022-09-28T09:21:44.566Z,98093.00
2022-09-28T09:24:48.967Z,98090.59
2022-09-28T09:28:07.988Z,98095.53
2022-09-28T09:31:09.332Z,98098.03
2022-09-28T09:34:01.211Z,98092.06
2022-09-28T09:37:17.222Z,98097.09
2022-09-28T09:40:11.210Z,98098.63
2022-09-28T09:43:27.934Z,98088.91
2022-09-28T09:46:38.132Z,98084.59
2022-09-28T09:49:24.995Z,98083.41
2022-09-28T09:52:15.404Z,98088.97
2022-09-28T09:54:57.804Z,98089.50
2022-09-28T09:57:53.410Z,98089.97
2022-09-28T10:00:46.070Z,98088.91
2022-09-28T10:03:26.437Z,98085.31
2022-09-28T10:06:07.267Z,98092.16
2022-09-28T10:08:38.017Z,98081.66
2022-09-28T10:11:38.759Z,98086.75
2022-09-28T10:14:21.582Z,98090.09
2022-09-28T10:16:57.357Z,98094.34
2022-09-28T10:19:44.881Z,98090.66
2022-09-28T10:22:31.712Z,98092.34
2022-09-28T10:25:01.424Z,98090.63
2022-09-28T10:27:32.063Z,98089.72
2022-09-28T10:30:11.802Z,98098.31
2022-09-28T10:32:41.795Z,98093.84
2022-09-28T10:35:18.755Z,98088.88
2022-09-28T10:38:00.251Z,98095.13
2022-09-28T10:40:56.404Z,98095.84
2022-09-28T10:44:08.819Z,98097.38
2022-09-28T10:46:56.629Z,98099.06
2022-09-28T10:49:24.491Z,98094.06
2022-09-28T10:51:56.691Z,98095.63
2022-09-28T10:54:29.665Z,98101.00
2022-09-28T10:56:59.667Z,98105.34
2022-09-28T10:59:41.136Z,98105.00
2022-09-28T11:02:24.481Z,98108.25
2022-09-28T11:05:00.341Z,98110.78
2022-09-28T11:07:33.772Z,98100.00
2022-09-28T11:10:01.786Z,98103.22
2022-09-28T11:12:39.721Z,98104.75
2022-09-28T11:15:08.019Z,98107.97
2022-09-28T11:17:41.655Z,98103.16
2022-09-28T11:20:33.111Z,98103.06
2022-09-28T11:23:08.322Z,98110.03
2022-09-28T11:25:39.701Z,98109.50
2022-09-28T11:28:06.943Z,98109.31
2022-09-28T11:30:40.725Z,98109.94
2022-09-28T11:33:33.601Z,98104.28
2022-09-28T11:36:47.131Z,98115.34
2022-09-28T11:39:38.795Z,98110.88
2022-09-28T11:42:35.054Z,98099.81
2022-09-28T11:45:37.138Z,98109.09
2022-09-28T11:48:07.531Z,98099.56
2022-09-28T11:50:55.953Z,98102.94
2022-09-28T11:53:48.934Z,98094.84
2022-09-28T11:56:34.912Z,98096.22
2022-09-28T11:59:14.952Z,98094.28
2022-09-28T12:01:57.398Z,98089.06
2022-09-28T12:04:48.972Z,98093.69
2022-09-28T12:07:23.367Z,98094.53
2022-09-28T12:09:55.643Z,98089.78
2022-09-28T12:12:25.041Z,98093.94
2022-09-28T12:14:57.598Z,98086.34
2022-09-28T12:17:42.866Z,98096.44
2022-09-28T12:20:54.881Z,98095.78
2022-09-28T12:23:31.552Z,98098.06
2022-09-28T12:26:03.824Z,98089.38
2022-09-28T12:28:35.423Z,98092.13
2022-09-28T12:31:12.884Z,98088.44
2022-09-28T12:33:42.113Z,98090.13
2022-09-28T12:36:30.590Z,98092.22
2022-09-28T12:39:30.702Z,98087.66
2022-09-28T12:42:32.101Z,98090.97
2022-09-28T12:45:02.409Z,98087.25
2022-09-28T12:47:46.131Z,98089.19
2022-09-28T12:50:38.145Z,98090.44
2022-09-28T12:53:08.172Z,98101.84
2022-09-28T12:55:51.212Z,98097.03
2022-09-28T12:59:00.129Z,98094.09
2022-09-28T13:01:40.127Z,98102.28
2022-09-28T13:04:44.780Z,98104.19
2022-09-28T13:07:23.459Z,98095.50
2022-09-28T13:09:55.787Z,98101.72
2022-09-28T13:12:25.911Z,98095.97
2022-09-28T13:14:58.632Z,98102.19
2022-09-28T13:17:50.614Z,98099.53
2022-09-28T13:20:35.889Z,98099.09
2022-09-28T13:23:08.858Z,98099.94
2022-09-28T13:25:37.435Z,98107.97
2022-09-28T13:28:05.890Z,98102.47
2022-09-28T13:30:35.804Z,98112.16
2022-09-28T13:33:04.501Z,98113.09
2022-09-28T13:35:33.425Z,98113.94
2022-09-28T13:38:18.750Z,98118.00
2022-09-28T13:41:09.984Z,98111.84
2022-09-28T13:43:57.932Z,98117.84
2022-09-28T13:46:43.371Z,98114.63
2022-09-28T13:49:17.285Z,98117.00
2022-09-28T13:52:02.974Z,98121.91
2022-09-28T13:55:06.675Z,98122.56
2022-09-28T13:57:51.559Z,98125.19
2022-09-28T14:00:37.322Z,98126.97
2022-09-28T14:03:19.717Z,98125.59
2022-09-28T14:05:49.641Z,98126.03
2022-09-28T14:08:38.508Z,98133.88
2022-09-28T14:11:27.101Z,98129.97
2022-09-28T14:14:16.225Z,98134.91
2022-09-28T14:16:43.957Z,98132.66
2022-09-28T14:19:26.706Z,98129.38
2022-09-28T14:22:00.627Z,98134.75
2022-09-28T14:25:05.152Z,98134.44
2022-09-28T14:27:37.979Z,98136.47
2022-09-28T14:30:19.692Z,98138.47
2022-09-28T14:32:54.896Z,98136.16
2022-09-28T14:35:40.842Z,98138.63
2022-09-28T14:38:36.499Z,98144.63
2022-09-28T14:41:13.785Z,98142.09
2022-09-28T14:43:46.751Z,98145.78
2022-09-28T14:46:26.161Z,98152.16
2022-09-28T14:48:55.176Z,98152.31
2022-09-28T14:51:25.574Z,98148.91
2022-09-28T14:54:12.965Z,98153.31
2022-09-28T14:56:47.748Z,98163.69
2022-09-28T14:59:18.326Z,98161.53
2022-09-28T15:02:02.693Z,98161.84
2022-09-28T15:04:31.249Z,98167.97
2022-09-28T15:06:58.284Z,98165.34
2022-09-28T15:09:43.790Z,98177.78
2022-09-28T15:12:12.261Z,98174.50
2022-09-28T15:14:54.097Z,98178.31
2022-09-28T15:17:27.565Z,98176.84
2022-09-28T15:20:01.543Z,98176.59
2022-09-28T15:22:30.483Z,98180.47
2022-09-28T15:25:02.362Z,98176.47
2022-09-28T15:27:37.789Z,98172.28
2022-09-28T15:30:28.819Z,98175.19
2022-09-28T15:33:17.200Z,98182.25
2022-09-28T15:36:07.932Z,98172.78
2022-09-28T15:38:35.231Z,98171.09
2022-09-28T15:41:06.718Z,98178.25
2022-09-28T15:43:36.851Z,98182.81
2022-09-28T15:46:21.280Z,98176.09
2022-09-28T15:48:56.589Z,98178.72
2022-09-28T15:51:24.841Z,98182.28
2022-09-28T15:53:58.250Z,98181.66
2022-09-28T15:56:26.393Z,98185.09
2022-09-28T15:59:15.182Z,98187.88
2022-09-28T16:01:45.945Z,98186.09
2022-09-28T16:04:39.561Z,98193.94
2022-09-28T16:07:29.341Z,98191.53
2022-09-28T16:10:02.431Z,98189.13
2022-09-28T16:13:06.396Z,98199.19
2022-09-28T16:15:35.555Z,98197.97
2022-09-28T16:18:20.902Z,98201.28
2022-09-28T16:20:56.306Z,98202.88
2022-09-28T16:23:31.345Z,98205.25
2022-09-28T16:26:37.526Z,98206.81
2022-09-28T16:29:40.309Z,98199.50
2022-09-28T16:32:26.029Z,98207.66
2022-09-28T16:35:17.515Z,98205.47
2022-09-28T16:37:48.782Z,98211.78
2022-09-28T16:40:15.871Z,98214.69
2022-09-28T16:42:48.921Z,98212.47
2022-09-28T16:45:23.914Z,98211.91
2022-09-28T16:47:53.145Z,98211.28
2022-09-28T16:50:21.802Z,98214.91
2022-09-28T16:53:31.486Z,98212.59
2022-09-28T16:55:59.156Z,98222.22
2022-09-28T16:58:27.451Z,98211.13
2022-09-28T17:00:55.150Z,98212.19
2022-09-28T17:03:23.801Z,98212.38
2022-09-28T17:05:51.821Z,98213.47
2022-09-28T17:08:20.514Z,98205.06
2022-09-28T17:13:39.942Z,98210.03
2022-09-28T17:16:11.744Z,98207.06
2022-09-28T17:18:39.907Z,98208.25
2022-09-28T17:21:11.848Z,98212.00
2022-09-28T17:23:38.956Z,98214.81
2022-09-28T17:26:06.082Z,98211.59
2022-09-28T17:28:37.049Z,98215.31
2022-09-28T17:31:04.956Z,98218.97
2022-09-28T17:33:32.103Z,98220.88
2022-09-28T17:36:04.886Z,98221.00
2022-09-28T17:38:32.601Z,98218.47
2022-09-28T17:40:59.734Z,98225.56
2022-09-28T17:43:26.782Z,98223.16
2022-09-28T17:45:53.726Z,98217.31
2022-09-28T17:48:24.429Z,98223.59
2022-09-28T17:50:51.591Z,98215.97
2022-09-28T17:53:18.488Z,98221.28
2022-09-28T17:55:45.574Z,98223.16
2022-09-28T17:58:18.507Z,98217.31
2022-09-28T18:00:50.745Z,98219.19
2022-09-28T18:03:20.197Z,98218.50
2022-09-28T18:05:49.849Z,98212.59
2022-09-28T18:08:21.447Z,98219.72
2022-09-28T18:10:49.972Z,98219.78
2022-09-28T18:13:16.920Z,98220.91
2022-09-28T18:15:43.883Z,98221.13
2022-09-28T18:18:13.345Z,98221.31
2022-09-28T18:20:41.671Z,98218.06
2022-09-28T18:23:08.855Z,98223.38
2022-09-28T18:25:44.561Z,98220.03
2022-09-28T18:28:12.893Z,98224.56
2022-09-28T18:30:41.779Z,98233.25
2022-09-28T18:33:09.162Z,98226.50
2022-09-28T18:35:36.637Z,98238.78
2022-09-28T18:38:05.520Z,98238.91
2022-09-28T18:40:36.023Z,98236.44
2022-09-28T18:43:03.901Z,98233.09
2022-09-28T18:45:31.224Z,98230.63
2022-09-28T18:47:59.962Z,98226.31
2022-09-28T18:50:27.032Z,98232.44
2022-09-28T18:52:54.093Z,98227.31
2022-09-28T18:55:21.251Z,98232.53
2022-09-28T18:57:48.224Z,98234.41
2022-09-28T19:00:15.487Z,98231.91
2022-09-28T19:02:43.247Z,98235.38
2022-09-28T19:05:10.321Z,98238.00
2022-09-28T19:07:37.577Z,98241.53
2022-09-28T19:10:05.231Z,98239.94
2022-09-28T19:12:33.009Z,98246.94
2022-09-28T19:15:00.026Z,98253.06
2022-09-28T19:17:36.953Z,98246.97
2022-09-28T19:20:04.666Z,98248.66
2022-09-28T19:22:31.944Z,98252.03
2022-09-28T19:24:59.132Z,98250.31
2022-09-28T19:27:26.362Z,98254.63
2022-09-28T19:29:53.761Z,98250.25
2022-09-28T19:32:21.097Z,98256.28
2022-09-28T19:34:48.635Z,98251.09
2022-09-28T19:37:16.144Z,98258.03
2022-09-28T19:39:43.511Z,98251.16
2022-09-28T19:42:10.751Z,98252.97
2022-09-28T19:44:39.587Z,98252.19
2022-09-28T19:47:09.029Z,98255.69
2022-09-28T19:49:38.762Z,98255.75
2022-09-28T19:52:17.285Z,98262.56
2022-09-28T19:54:57.045Z,98261.56
2022-09-28T19:57:27.977Z,98258.09
2022-09-28T20:00:01.669Z,98258.91
2022-09-28T20:02:33.818Z,98255.47
2022-09-28T20:05:01.013Z,98255.59
2022-09-28T20:07:28.382Z,98266.00
2022-09-28T20:09:55.385Z,98268.75
2022-09-28T20:12:22.550Z,98263.69
2022-09-28T20:14:49.614Z,98265.53
2022-09-28T20:17:16.610Z,98263.94
2022-09-28T20:19:43.745Z,98260.53
2022-09-28T20:22:12.234Z,98260.59
2022-09-28T20:24:39.307Z,98261.47
2022-09-28T20:27:06.802Z,98264.94
2022-09-28T20:29:34.796Z,98264.19
2022-09-28T20:32:04.174Z,98263.34
2022-09-28T20:34:31.761Z,98264.19
2022-09-28T20:36:58.738Z,98261.59
2022-09-28T20:39:26.151Z,98264.19
2022-09-28T20:41:53.781Z,98270.19
2022-09-28T20:44:21.239Z,98266.75
2022-09-28T20:46:51.427Z,98264.19
2022-09-28T20:49:18.603Z,98266.66
2022-09-28T20:51:45.793Z,98265.69
2022-09-28T20:54:12.929Z,98263.81
2022-09-28T20:56:39.915Z,98264.63
2022-09-28T20:59:11.902Z,98260.41
2022-09-28T21:01:39.209Z,98266.41
2022-09-28T21:04:07.415Z,98273.19
2022-09-28T21:06:39.352Z,98262.03
2022-09-28T21:09:07.004Z,98277.47
2022-09-28T21:11:35.826Z,98280.06
2022-09-28T21:14:05.261Z,98274.03
2022-09-28T21:16:34.261Z,98280.16
2022-09-28T21:19:01.495Z,98277.56
2022-09-28T21:21:28.608Z,98281.84
2022-09-28T21:23:56.813Z,98286.22
2022-09-28T21:26:26.055Z,98286.28
2022-09-28T21:28:58.239Z,98284.53
2022-09-28T21:31:29.412Z,98290.63
2022-09-28T21:33:57.816Z,98286.28
2022-09-28T21:36:25.685Z,98288.88
2022-09-28T21:38:54.314Z,98292.28
2022-09-28T21:41:21.453Z,98296.63
2022-09-28T21:43:48.365Z,98294.91
2022-09-28T21:46:15.454Z,98294.88
2022-09-28T21:48:42.430Z,98294.91
2022-09-28T21:51:12.882Z,98294.94
2022-09-28T21:53:39.857Z,98284.47
2022-09-28T21:56:09.939Z,98284.28
2022-09-28T21:58:37.176Z,98292.78
2022-09-28T22:01:11.083Z,98293.75
2022-09-28T22:03:38.184Z,98297.34
2022-09-28T22:06:06.024Z,98293.25
2022-09-28T22:08:34.021Z,98298.56
2022-09-28T22:11:02.778Z,98306.53
2022-09-28T22:13:31.381Z,98302.31
2022-09-28T22:15:58.999Z,98308.44
2022-09-28T22:18:27.783Z,98299.94
2022-09-28T22:21:09.876Z,98303.53
2022-09-28T22:23:37.294Z,98298.34
2022-09-28T22:26:19.130Z,98300.03
2022-09-28T22:28:50.672Z,98304.38
2022-09-28T22:31:19.387Z,98307.03
2022-09-28T22:33:46.529Z,98307.19
2022-09-28T22:36:16.700Z,98307.19
2022-09-28T22:38:44.830Z,98306.44
2022-09-28T22:41:12.205Z,98307.28
2022-09-28T22:43:39.198Z,98307.31
2022-09-28T22:46:06.319Z,98308.31
2022-09-28T22:48:34.471Z,98306.66
2022-09-28T22:51:02.356Z,98316.19
2022-09-28T22:53:29.618Z,98312.81
2022-09-28T22:55:57.986Z,98313.72
2022-09-28T22:58:25.035Z,98318.94
2022-09-28T23:00:52.426Z,98318.09
2022-09-28T23:03:19.406Z,98318.16
2022-09-28T23:05:54.387Z,98326.00
2022-09-28T23:08:22.382Z,98335.56
2022-09-28T23:10:49.844Z,98327.09
2022-09-28T23:13:16.999Z,98331.41
2022-09-28T23:15:43.921Z,98343.53
2022-09-28T23:18:11.166Z,98330.63
2022-09-28T23:20:38.329Z,98338.41
2022-09-28T23:23:05.682Z,98342.72
2022-09-28T23:25:32.740Z,98335.78
2022-09-28T23:27:59.901Z,98344.34
2022-09-28T23:30:27.061Z,98336.50
2022-09-28T23:32:54.042Z,98338.03
2022-09-28T23:35:21.143Z,98338.84
2022-09-28T23:37:51.786Z,98337.09
2022-09-28T23:40:19.105Z,98337.06
2022-09-28T23:42:46.064Z,98343.13
2022-09-28T23:45:13.233Z,98340.44
2022-09-28T23:47:40.290Z,98340.25
2022-09-28T23:50:08.123Z,98335.78
2022-09-28T23:52:35.443Z,98334.88
2022-09-28T23:55:02.542Z,98329.75
2022-09-28T23:57:29.570Z,98326.34
2022-09-28T23:59:56.534Z,98327.25
